createdAt,value
2017-12-23T00:00:28.613Z,11.03
2017-12-23T00:02:56.477Z,28.77
2017-12-23T00:05:24.348Z,9.50
2017-12-23T00:07:52.206Z,10.23
2017-12-23T00:10:20.081Z,15.93
2017-12-23T00:12:47.945Z,10.23
2017-12-23T00:15:15.799Z,9.80
2017-12-23T00:17:43.629Z,9.53
2017-12-23T00:20:11.520Z,8.57
2017-12-23T00:22:39.372Z,9.33
2017-12-23T00:25:07.292Z,9.53
2017-12-23T00:27:35.244Z,9.90
2017-12-23T00:30:03.151Z,9.37
2017-12-23T00:32:31.053Z,9.80
2017-12-23T00:34:58.937Z,10.40
2017-12-23T00:37:27.176Z,9.03
2017-12-23T00:39:55.044Z,9.20
2017-12-23T00:42:22.932Z,9.90
2017-12-23T00:44:50.825Z,9.53
2017-12-23T00:47:18.663Z,10.57
2017-12-23T00:49:46.630Z,9.90
2017-12-23T00:52:14.501Z,10.37
2017-12-23T00:54:42.410Z,9.70
2017-12-23T00:57:10.344Z,10.47
2017-12-23T00:59:38.194Z,9.97
2017-12-23T01:02:06.083Z,11.23
2017-12-23T01:04:33.973Z,12.73
2017-12-23T01:07:01.887Z,9.83
2017-12-23T01:09:29.748Z,9.13
2017-12-23T01:11:57.626Z,12.27
2017-12-23T01:14:25.493Z,10.10
2017-12-23T01:16:53.357Z,9.60
2017-12-23T01:19:21.250Z,16.83
2017-12-23T01:21:49.133Z,10.37
2017-12-23T01:24:17.037Z,14.43
2017-12-23T01:26:45.149Z,11.40
2017-12-23T01:29:13.028Z,11.30
2017-12-23T01:31:40.892Z,12.00
2017-12-23T01:34:08.760Z,10.40
2017-12-23T01:36:36.650Z,11.90
2017-12-23T01:39:04.522Z,10.97
2017-12-23T01:41:32.477Z,17.57
2017-12-23T01:44:00.392Z,9.00
2017-12-23T01:46:28.241Z,9.73
2017-12-23T01:48:56.155Z,9.23
2017-12-23T01:51:24.045Z,10.30
2017-12-23T01:53:51.890Z,9.40
2017-12-23T01:56:19.793Z,11.03
2017-12-23T01:58:47.802Z,10.63
2017-12-23T02:01:15.660Z,8.10
2017-12-23T02:03:43.665Z,10.37
2017-12-23T02:06:11.527Z,8.00
2017-12-23T02:08:39.388Z,11.03
2017-12-23T02:11:07.296Z,8.00
2017-12-23T02:13:35.144Z,8.00
2017-12-23T02:16:03.020Z,9.40
2017-12-23T02:18:30.916Z,8.87
2017-12-23T02:20:58.788Z,7.30
2017-12-23T02:23:26.657Z,8.30
2017-12-23T02:25:54.560Z,8.07
2017-12-23T02:28:22.431Z,9.10
2017-12-23T02:30:50.274Z,8.77
2017-12-23T02:33:18.197Z,8.40
2017-12-23T02:35:46.076Z,10.23
2017-12-23T02:38:13.934Z,9.03
2017-12-23T02:40:41.896Z,9.30
2017-12-23T02:43:09.761Z,10.87
2017-12-23T02:45:37.645Z,10.20
2017-12-23T02:48:05.524Z,10.33
2017-12-23T02:50:33.485Z,11.10
2017-12-23T02:53:01.350Z,10.60
2017-12-23T02:55:29.244Z,11.20
2017-12-23T02:57:57.109Z,11.27
2017-12-23T03:00:24.993Z,11.47
2017-12-23T03:02:52.888Z,11.53
2017-12-23T03:05:20.778Z,12.17
2017-12-23T03:07:48.649Z,11.60
2017-12-23T03:10:16.657Z,12.10
2017-12-23T03:12:44.547Z,11.67
2017-12-23T03:15:12.491Z,10.87
2017-12-23T03:17:40.443Z,12.70
2017-12-23T03:20:08.318Z,12.60
2017-12-23T03:22:36.215Z,12.53
2017-12-23T03:25:04.121Z,11.70
2017-12-23T03:27:32.138Z,12.63
2017-12-23T03:30:00.073Z,12.97
2017-12-23T03:32:27.984Z,11.67
2017-12-23T03:34:55.845Z,12.73
2017-12-23T03:37:23.835Z,13.13
2017-12-23T03:39:51.720Z,11.90
2017-12-23T03:42:19.639Z,11.30
2017-12-23T03:44:47.694Z,11.20
2017-12-23T03:47:15.610Z,12.10
2017-12-23T03:49:43.481Z,12.57
2017-12-23T03:52:11.365Z,12.03
2017-12-23T03:54:39.257Z,11.13
2017-12-23T03:57:07.150Z,12.40
2017-12-23T03:59:35.014Z,11.73
2017-12-23T04:02:02.903Z,11.57
2017-12-23T04:04:30.813Z,11.50
2017-12-23T04:06:58.856Z,11.20
2017-12-23T04:09:26.768Z,12.20
2017-12-23T04:11:54.778Z,11.40
2017-12-23T04:14:22.785Z,12.07
2017-12-23T04:16:50.734Z,12.00
2017-12-23T04:19:18.612Z,12.97
2017-12-23T04:21:46.483Z,12.80
2017-12-23T04:24:14.385Z,13.10
2017-12-23T04:26:42.245Z,11.23
2017-12-23T04:29:10.095Z,13.57
2017-12-23T04:31:37.984Z,13.30
2017-12-23T04:34:05.842Z,12.43
2017-12-23T04:36:33.691Z,12.87
2017-12-23T04:39:01.579Z,13.53
2017-12-23T04:41:29.449Z,12.93
2017-12-23T04:43:57.304Z,13.27
2017-12-23T04:46:25.222Z,12.90
2017-12-23T04:48:53.060Z,15.20
2017-12-23T04:51:20.975Z,12.37
2017-12-23T04:53:48.849Z,14.07
2017-12-23T04:56:16.684Z,14.63
2017-12-23T04:58:44.554Z,12.63
2017-12-23T05:01:12.424Z,13.70
2017-12-23T05:03:40.295Z,13.20
2017-12-23T05:06:08.168Z,13.40
2017-12-23T05:08:36.105Z,12.53
2017-12-23T05:11:03.972Z,13.00
2017-12-23T05:13:31.838Z,11.00
2017-12-23T05:15:59.735Z,11.10
2017-12-23T05:18:27.590Z,11.73
2017-12-23T05:20:55.460Z,12.57
2017-12-23T05:23:23.324Z,11.80
2017-12-23T05:25:51.175Z,11.63
2017-12-23T05:28:19.048Z,12.17
2017-12-23T05:30:46.946Z,10.80
2017-12-23T05:33:14.844Z,11.30
2017-12-23T05:35:42.689Z,11.30
2017-12-23T05:38:10.573Z,11.27
2017-12-23T05:40:38.427Z,11.93
2017-12-23T05:43:06.274Z,12.33
2017-12-23T05:45:34.156Z,11.47
2017-12-23T05:48:02.020Z,11.87
2017-12-23T05:50:29.888Z,12.13
2017-12-23T05:52:57.783Z,12.53
2017-12-23T05:55:25.642Z,12.00
2017-12-23T05:57:53.505Z,13.17
2017-12-23T06:00:21.384Z,13.77
2017-12-23T06:02:49.250Z,13.33
2017-12-23T06:05:17.124Z,14.30
2017-12-23T06:07:44.999Z,13.70
2017-12-23T06:10:12.924Z,13.57
2017-12-23T06:12:40.798Z,13.97
2017-12-23T06:15:08.688Z,15.07
2017-12-23T06:17:36.568Z,14.30
2017-12-23T06:20:04.447Z,15.87
2017-12-23T06:22:32.320Z,16.20
2017-12-23T06:25:00.250Z,16.00
2017-12-23T06:27:28.128Z,16.03
2017-12-23T06:29:55.998Z,15.70
2017-12-23T06:32:24.424Z,15.77
2017-12-23T06:34:52.276Z,16.03
2017-12-23T06:37:20.172Z,16.13
2017-12-23T06:39:48.011Z,18.17
2017-12-23T06:42:15.877Z,15.93
2017-12-23T06:44:43.769Z,18.60
2017-12-23T06:47:11.616Z,18.20
2017-12-23T06:49:39.487Z,18.47
2017-12-23T06:52:07.353Z,16.37
2017-12-23T06:54:35.216Z,17.10
2017-12-23T06:57:03.051Z,19.10
2017-12-23T06:59:30.954Z,18.60
2017-12-23T07:01:58.855Z,18.63
2017-12-23T07:04:26.717Z,19.63
2017-12-23T07:06:54.592Z,19.70
2017-12-23T07:09:22.485Z,21.00
2017-12-23T07:11:50.393Z,19.50
2017-12-23T07:14:18.281Z,19.53
2017-12-23T07:16:46.176Z,19.53
2017-12-23T07:19:14.027Z,19.57
2017-12-23T07:21:41.919Z,21.33
2017-12-23T07:24:09.784Z,21.43
2017-12-23T07:26:37.728Z,21.27
2017-12-23T07:29:05.612Z,20.50
2017-12-23T07:31:33.482Z,21.63
2017-12-23T07:34:01.387Z,20.73
2017-12-23T07:36:29.298Z,19.57
2017-12-23T07:38:57.292Z,20.70
2017-12-23T07:41:25.173Z,20.37
2017-12-23T07:43:53.065Z,19.40
2017-12-23T07:46:20.908Z,21.07
2017-12-23T07:48:48.776Z,19.60
2017-12-23T07:51:16.687Z,19.57
2017-12-23T07:53:44.575Z,19.20
2017-12-23T07:56:12.430Z,19.60
2017-12-23T07:58:40.308Z,19.30
2017-12-23T08:01:08.159Z,19.87
2017-12-23T08:03:36.036Z,19.20
2017-12-23T08:06:03.907Z,19.80
2017-12-23T08:08:31.793Z,18.03
2017-12-23T08:10:59.681Z,18.87
2017-12-23T08:13:27.609Z,19.83
2017-12-23T08:15:55.476Z,19.10
2017-12-23T08:18:23.339Z,18.97
2017-12-23T08:20:51.244Z,17.53
2017-12-23T08:23:19.115Z,18.43
2017-12-23T08:25:46.967Z,17.77
2017-12-23T08:28:14.844Z,17.57
2017-12-23T08:30:42.728Z,17.43
2017-12-23T08:33:10.580Z,17.40
2017-12-23T08:35:38.453Z,17.50
2017-12-23T08:38:06.320Z,16.73
2017-12-23T08:40:34.155Z,16.93
2017-12-23T08:43:02.029Z,16.87
2017-12-23T08:45:29.907Z,17.43
2017-12-23T08:47:57.823Z,16.77
2017-12-23T08:50:25.710Z,17.63
2017-12-23T08:52:57.303Z,17.70
2017-12-23T08:55:25.204Z,17.23
2017-12-23T08:57:53.049Z,17.23
2017-12-23T09:00:20.923Z,18.70
2017-12-23T09:02:48.823Z,17.30
2017-12-23T09:05:16.682Z,16.40
2017-12-23T09:07:44.552Z,17.03
2017-12-23T09:10:12.424Z,17.77
2017-12-23T09:12:40.296Z,17.57
2017-12-23T09:15:08.216Z,16.87
2017-12-23T09:17:36.157Z,15.90
2017-12-23T09:20:04.040Z,17.93
2017-12-23T09:22:31.920Z,18.00
2017-12-23T09:25:00.750Z,17.47
2017-12-23T09:27:37.252Z,17.17
2017-12-23T09:30:05.759Z,17.03
2017-12-23T09:32:33.611Z,16.80
2017-12-23T09:35:01.526Z,17.53
2017-12-23T09:37:29.471Z,17.07
2017-12-23T09:39:57.328Z,16.80
2017-12-23T09:42:25.232Z,17.50
2017-12-23T09:44:53.130Z,18.07
2017-12-23T09:47:21.037Z,17.10
2017-12-23T09:49:48.863Z,17.83
2017-12-23T09:52:16.774Z,17.23
2017-12-23T09:54:44.664Z,16.43
2017-12-23T09:57:12.514Z,16.13
2017-12-23T09:59:40.388Z,15.37
2017-12-23T10:02:08.268Z,15.57
2017-12-23T10:04:36.144Z,15.33
2017-12-23T10:07:04.031Z,16.80
2017-12-23T10:09:31.895Z,14.10
2017-12-23T10:11:59.811Z,14.03
2017-12-23T10:14:27.767Z,13.93
2017-12-23T10:16:55.681Z,14.33
2017-12-23T10:19:23.546Z,14.47
2017-12-23T10:21:51.404Z,13.10
2017-12-23T10:24:19.263Z,15.00
2017-12-23T10:26:47.111Z,12.63
2017-12-23T10:29:14.976Z,11.97
2017-12-23T10:31:42.828Z,11.70
2017-12-23T10:34:10.716Z,11.00
2017-12-23T10:36:38.637Z,10.87
2017-12-23T10:39:06.535Z,9.50
2017-12-23T10:41:34.406Z,9.87
2017-12-23T10:44:02.317Z,9.20
2017-12-23T10:46:30.183Z,8.40
2017-12-23T10:48:58.046Z,7.70
2017-12-23T10:51:25.924Z,8.33
2017-12-23T10:53:53.751Z,9.17
2017-12-23T10:56:21.633Z,9.33
2017-12-23T10:58:49.488Z,7.90
2017-12-23T11:01:17.400Z,8.80
2017-12-23T11:03:45.283Z,7.63
2017-12-23T11:06:13.320Z,6.70
2017-12-23T11:08:41.430Z,6.67
2017-12-23T11:11:09.389Z,6.80
2017-12-23T11:13:37.308Z,6.30
2017-12-23T11:16:05.176Z,6.43
2017-12-23T11:18:33.095Z,6.50
2017-12-23T11:21:00.996Z,6.20
2017-12-23T11:23:28.842Z,6.83
2017-12-23T11:25:56.695Z,6.00
2017-12-23T11:28:24.572Z,7.00
2017-12-23T11:30:52.439Z,6.87
2017-12-23T11:33:20.353Z,6.10
2017-12-23T11:35:48.239Z,5.70
2017-12-23T11:38:16.128Z,6.90
2017-12-23T11:40:44.050Z,5.73
2017-12-23T11:43:11.915Z,5.00
2017-12-23T11:45:39.780Z,4.40
2017-12-23T11:48:07.703Z,5.03
2017-12-23T11:50:35.785Z,5.83
2017-12-23T11:53:03.697Z,5.13
2017-12-23T11:55:31.577Z,5.70
2017-12-23T11:57:59.492Z,4.80
2017-12-23T12:00:27.476Z,4.90
2017-12-23T12:02:55.427Z,4.60
2017-12-23T12:05:23.296Z,4.70
2017-12-23T12:07:51.206Z,4.10
2017-12-23T12:10:19.076Z,5.07
2017-12-23T12:12:46.970Z,4.27
2017-12-23T12:15:14.843Z,3.67
2017-12-23T12:17:42.699Z,4.17
2017-12-23T12:20:10.832Z,4.97
2017-12-23T12:22:38.759Z,3.20
2017-12-23T12:25:06.738Z,3.87
2017-12-23T12:27:34.941Z,4.50
2017-12-23T12:30:02.955Z,4.30
2017-12-23T12:32:30.950Z,3.77
2017-12-23T12:34:58.888Z,3.87
2017-12-23T12:37:26.914Z,3.80
2017-12-23T12:39:54.964Z,4.30
2017-12-23T12:42:23.268Z,5.03
2017-12-23T12:44:51.371Z,4.50
2017-12-23T12:47:19.269Z,4.60
2017-12-23T12:49:47.158Z,4.63
2017-12-23T12:52:15.021Z,4.10
2017-12-23T12:54:43.103Z,4.67
2017-12-23T12:57:11.231Z,3.93
2017-12-23T12:59:39.095Z,3.97
2017-12-23T13:02:06.986Z,4.63
2017-12-23T13:04:34.915Z,6.17
2017-12-23T13:07:02.812Z,4.97
2017-12-23T13:09:30.699Z,5.37
2017-12-23T13:11:58.595Z,6.90
2017-12-23T13:14:26.456Z,5.90
2017-12-23T13:16:54.298Z,5.40
2017-12-23T13:19:22.171Z,5.60
2017-12-23T13:21:50.123Z,6.30
2017-12-23T13:24:18.017Z,6.50
2017-12-23T13:26:45.904Z,6.57
2017-12-23T13:29:13.865Z,6.33
2017-12-23T13:31:41.703Z,6.77
2017-12-23T13:34:09.600Z,8.07
2017-12-23T13:36:37.482Z,9.67
2017-12-23T13:39:05.396Z,9.87
2017-12-23T13:41:33.256Z,6.30
2017-12-23T13:44:01.121Z,6.90
2017-12-23T13:46:28.975Z,5.30
2017-12-23T13:48:56.886Z,5.23
2017-12-23T13:51:24.744Z,5.87
2017-12-23T13:53:52.645Z,5.50
2017-12-23T13:56:20.566Z,6.00
2017-12-23T13:58:48.487Z,6.27
2017-12-23T14:01:17.837Z,5.50
2017-12-23T14:03:45.827Z,5.10
2017-12-23T14:06:13.680Z,6.43
2017-12-23T14:08:41.559Z,6.40
2017-12-23T14:11:09.487Z,6.50
2017-12-23T14:13:38.345Z,5.60
2017-12-23T14:16:06.218Z,6.73
2017-12-23T14:18:34.209Z,7.40
2017-12-23T14:21:02.056Z,7.17
2017-12-23T14:23:29.997Z,7.83
2017-12-23T14:25:57.915Z,8.20
2017-12-23T14:28:25.787Z,7.83
2017-12-23T14:30:53.684Z,8.20
2017-12-23T14:33:21.623Z,9.57
2017-12-23T14:35:49.471Z,8.93
2017-12-23T14:38:17.397Z,7.20
2017-12-23T14:40:45.340Z,8.60
2017-12-23T14:43:13.305Z,8.20
2017-12-23T14:45:41.191Z,8.13
2017-12-23T14:48:09.054Z,9.90
2017-12-23T14:50:36.924Z,9.93
2017-12-23T14:53:04.790Z,10.63
2017-12-23T14:55:34.212Z,11.40
2017-12-23T14:58:02.097Z,10.67
2017-12-23T15:00:29.967Z,11.43
2017-12-23T15:02:57.887Z,12.20
2017-12-23T15:05:25.771Z,12.33
2017-12-23T15:07:53.747Z,13.30
2017-12-23T15:10:21.608Z,12.40
2017-12-23T15:12:49.473Z,12.27
2017-12-23T15:15:17.340Z,13.13
2017-12-23T15:17:46.060Z,12.47
2017-12-23T15:20:13.924Z,13.10
2017-12-23T15:22:41.794Z,14.20
2017-12-23T15:25:09.739Z,14.87
2017-12-23T15:27:37.628Z,15.03
2017-12-23T15:30:05.574Z,14.90
2017-12-23T15:32:33.471Z,14.53
2017-12-23T15:35:01.352Z,14.93
2017-12-23T15:37:29.199Z,16.30
2017-12-23T15:39:57.090Z,16.23
2017-12-23T15:42:24.945Z,16.70
2017-12-23T15:44:52.798Z,18.07
2017-12-23T15:47:20.754Z,19.00
2017-12-23T15:49:48.592Z,19.50
2017-12-23T15:52:16.459Z,20.33
2017-12-23T15:54:44.356Z,20.70
2017-12-23T15:57:12.206Z,20.63
2017-12-23T15:59:40.095Z,21.07
2017-12-23T16:02:07.973Z,22.67
2017-12-23T16:04:35.828Z,22.80
2017-12-23T16:07:03.764Z,22.13
2017-12-23T16:09:31.695Z,22.30
2017-12-23T16:11:59.557Z,24.60
2017-12-23T16:14:27.483Z,25.37
2017-12-23T16:16:55.350Z,24.70
2017-12-23T16:19:23.204Z,25.77
2017-12-23T16:21:51.176Z,25.40
2017-12-23T16:24:19.124Z,24.80
2017-12-23T16:26:47.044Z,26.13
2017-12-23T16:29:14.963Z,25.10
2017-12-23T16:31:42.980Z,25.47
2017-12-23T16:34:10.949Z,25.60
2017-12-23T16:36:38.834Z,27.00
2017-12-23T16:39:06.797Z,25.33
2017-12-23T16:41:34.687Z,27.47
2017-12-23T16:44:02.680Z,27.07
2017-12-23T16:46:30.563Z,27.40
2017-12-23T16:48:58.403Z,27.93
2017-12-23T16:51:26.414Z,26.57
2017-12-23T16:53:54.299Z,31.07
2017-12-23T16:56:22.172Z,27.80
2017-12-23T16:58:50.035Z,29.77
2017-12-23T17:01:17.907Z,31.00
2017-12-23T17:03:45.762Z,31.27
2017-12-23T17:06:13.650Z,30.43
2017-12-23T17:08:41.512Z,31.07
2017-12-23T17:11:09.479Z,33.27
2017-12-23T17:13:37.344Z,31.97
2017-12-23T17:16:05.263Z,30.57
2017-12-23T17:18:33.361Z,32.97
2017-12-23T17:21:01.255Z,31.00
2017-12-23T17:23:29.128Z,30.10
2017-12-23T17:25:57.072Z,32.50
2017-12-23T17:28:31.127Z,32.43
2017-12-23T17:30:58.972Z,32.27
2017-12-23T17:33:26.865Z,32.47
2017-12-23T17:35:54.733Z,31.07
2017-12-23T17:38:22.649Z,29.50
2017-12-23T17:40:50.553Z,33.03
2017-12-23T17:43:18.480Z,34.20
2017-12-23T17:45:46.328Z,34.10
2017-12-23T17:48:14.240Z,32.17
2017-12-23T17:50:42.187Z,32.60
2017-12-23T17:53:10.041Z,32.30
2017-12-23T17:55:37.927Z,32.50
2017-12-23T17:58:05.806Z,32.30
2017-12-23T18:00:33.689Z,32.57
2017-12-23T18:03:01.600Z,33.77
2017-12-23T18:05:29.527Z,34.53
2017-12-23T18:07:57.527Z,36.27
2017-12-23T18:10:25.407Z,35.90
2017-12-23T18:12:53.375Z,36.30
2017-12-23T18:15:21.648Z,36.37
2017-12-23T18:17:49.582Z,33.80
2017-12-23T18:20:17.454Z,35.00
2017-12-23T18:22:45.323Z,33.37
2017-12-23T18:25:13.180Z,35.03
2017-12-23T18:27:41.096Z,31.93
2017-12-23T18:30:09.015Z,34.07
2017-12-23T18:32:36.868Z,31.73
2017-12-23T18:35:04.842Z,34.70
2017-12-23T18:37:32.711Z,33.53
2017-12-23T18:40:00.581Z,31.00
2017-12-23T18:42:28.515Z,31.93
2017-12-23T18:44:56.419Z,30.27
2017-12-23T18:47:24.314Z,29.83
2017-12-23T18:49:52.212Z,28.87
2017-12-23T18:52:20.075Z,29.10
2017-12-23T18:54:47.981Z,30.00
2017-12-23T18:57:15.882Z,28.67
2017-12-23T18:59:43.776Z,29.90
2017-12-23T19:02:11.637Z,28.67
2017-12-23T19:04:39.523Z,28.33
2017-12-23T19:07:07.388Z,29.00
2017-12-23T19:09:35.319Z,29.00
2017-12-23T19:12:03.210Z,28.37
2017-12-23T19:14:31.063Z,26.20
2017-12-23T19:16:58.987Z,29.00
2017-12-23T19:19:26.855Z,33.57
2017-12-23T19:21:55.011Z,27.27
2017-12-23T19:24:22.927Z,28.20
2017-12-23T19:26:50.851Z,26.30
2017-12-23T19:29:18.750Z,26.77
2017-12-23T19:31:46.673Z,26.77
2017-12-23T19:34:14.544Z,24.10
2017-12-23T19:36:42.392Z,25.77
2017-12-23T19:39:10.238Z,26.30
2017-12-23T19:41:38.116Z,24.40
2017-12-23T19:44:05.979Z,27.90
2017-12-23T19:46:33.926Z,23.20
2017-12-23T19:49:01.799Z,25.10
2017-12-23T19:51:29.652Z,24.80
2017-12-23T19:53:57.559Z,24.90
2017-12-23T19:56:25.553Z,23.23
2017-12-23T19:58:53.411Z,24.30
2017-12-23T20:01:21.328Z,23.47
2017-12-23T20:03:49.264Z,23.33
2017-12-23T20:06:17.156Z,23.50
2017-12-23T20:08:45.105Z,23.50
2017-12-23T20:11:14.031Z,23.50
2017-12-23T20:13:41.896Z,23.07
2017-12-23T20:16:09.828Z,21.43
2017-12-23T20:18:37.710Z,22.20
2017-12-23T20:21:05.612Z,21.60
2017-12-23T20:23:33.456Z,22.00
2017-12-23T20:26:01.337Z,22.90
2017-12-23T20:28:29.254Z,21.47
2017-12-23T20:30:57.104Z,22.73
2017-12-23T20:33:25.040Z,21.27
2017-12-23T20:35:52.911Z,21.70
2017-12-23T20:38:20.748Z,22.27
2017-12-23T20:40:48.629Z,20.17
2017-12-23T20:43:16.568Z,18.93
2017-12-23T20:45:44.428Z,20.10
2017-12-23T20:48:12.330Z,20.87
2017-12-23T20:50:40.232Z,19.47
2017-12-23T20:53:08.208Z,17.97
2017-12-23T20:55:36.160Z,19.40
2017-12-23T20:58:04.032Z,20.27
2017-12-23T21:00:31.869Z,19.70
2017-12-23T21:02:59.771Z,19.33
2017-12-23T21:05:27.682Z,17.60
2017-12-23T21:07:55.535Z,18.23
2017-12-23T21:10:23.412Z,17.77
2017-12-23T21:12:51.267Z,19.30
2017-12-23T21:15:19.170Z,16.50
2017-12-23T21:17:47.047Z,17.57
2017-12-23T21:20:14.907Z,15.77
2017-12-23T21:22:42.788Z,16.77
2017-12-23T21:25:10.687Z,17.40
2017-12-23T21:27:38.535Z,17.73
2017-12-23T21:30:06.432Z,16.67
2017-12-23T21:32:34.331Z,17.33
2017-12-23T21:35:02.238Z,16.10
2017-12-23T21:37:30.339Z,16.07
2017-12-23T21:39:58.225Z,17.40
2017-12-23T21:42:26.147Z,18.43
2017-12-23T21:44:54.017Z,15.93
2017-12-23T21:47:22.046Z,16.03
2017-12-23T21:49:49.901Z,17.20
2017-12-23T21:52:17.757Z,16.47
2017-12-23T21:54:45.663Z,17.53
2017-12-23T21:57:13.511Z,17.80
2017-12-23T21:59:41.353Z,16.10
2017-12-23T22:02:09.247Z,16.50
2017-12-23T22:04:37.108Z,16.03
2017-12-23T22:07:04.948Z,16.70
2017-12-23T22:09:32.855Z,15.60
2017-12-23T22:12:00.888Z,16.73
2017-12-23T22:14:28.814Z,16.53
2017-12-23T22:16:56.771Z,16.50
2017-12-23T22:19:24.648Z,16.80
2017-12-23T22:21:52.507Z,18.00
2017-12-23T22:24:20.400Z,17.80
2017-12-23T22:26:48.255Z,16.60
2017-12-23T22:29:16.115Z,17.80
2017-12-23T22:31:43.988Z,18.43
2017-12-23T22:34:11.850Z,18.20
2017-12-23T22:36:39.811Z,17.70
2017-12-23T22:39:07.699Z,18.53
2017-12-23T22:41:35.545Z,18.47
2017-12-23T22:44:04.753Z,18.53
2017-12-23T22:46:36.488Z,18.07
2017-12-23T22:49:04.351Z,20.00
2017-12-23T22:51:32.202Z,19.60
2017-12-23T22:54:00.072Z,18.47
2017-12-23T22:56:27.923Z,19.20
2017-12-23T22:58:55.771Z,19.13
2017-12-23T23:01:23.696Z,19.60
2017-12-23T23:03:51.569Z,19.20
2017-12-23T23:06:19.431Z,21.53
2017-12-23T23:08:47.296Z,19.63
2017-12-23T23:11:18.929Z,18.50
2017-12-23T23:13:46.787Z,19.70
2017-12-23T23:16:14.679Z,20.20
2017-12-23T23:18:45.247Z,20.87
2017-12-23T23:21:13.148Z,21.57
2017-12-23T23:23:41.083Z,20.30
2017-12-23T23:26:08.928Z,21.43
2017-12-23T23:28:36.791Z,21.10
2017-12-23T23:31:04.667Z,21.47
2017-12-23T23:33:32.520Z,22.67
2017-12-23T23:36:00.373Z,19.93
2017-12-23T23:38:28.338Z,22.23
2017-12-23T23:40:56.243Z,20.63
2017-12-23T23:43:24.091Z,21.80
2017-12-23T23:45:52.026Z,20.83
2017-12-23T23:48:19.935Z,21.10
2017-12-23T23:50:47.805Z,22.80
2017-12-23T23:53:15.749Z,21.60
2017-12-23T23:55:43.642Z,23.20
2017-12-23T23:58:11.581Z,24.10
